createdAt,value
2023-02-24T00:00:47.286Z,11.49
2023-02-24T00:01:46.002Z,11.50
2023-02-24T00:02:46.059Z,11.50
2023-02-24T00:03:46.063Z,11.43
2023-02-24T00:04:45.953Z,11.31
2023-02-24T00:05:45.971Z,11.43
2023-02-24T00:06:45.939Z,11.49
2023-02-24T00:07:46.014Z,11.52
2023-02-24T00:08:45.895Z,11.46
2023-02-24T00:09:45.908Z,11.59
2023-02-24T00:10:45.969Z,11.64
2023-02-24T00:11:46.016Z,11.70
2023-02-24T00:12:45.846Z,11.70
2023-02-24T00:13:45.851Z,11.59
2023-02-24T00:14:45.833Z,11.46
2023-02-24T00:15:45.830Z,11.54
2023-02-24T00:16:45.886Z,11.67
2023-02-24T00:17:45.892Z,11.70
2023-02-24T00:18:45.806Z,11.75
2023-02-24T00:19:45.775Z,11.75
2023-02-24T00:20:45.754Z,11.82
2023-02-24T00:21:45.787Z,11.80
2023-02-24T00:22:45.732Z,11.57
2023-02-24T00:23:45.749Z,11.49
2023-02-24T00:24:45.718Z,11.41
2023-02-24T00:25:45.697Z,11.31
2023-02-24T00:26:45.719Z,11.31
2023-02-24T00:27:45.676Z,11.44
2023-02-24T00:28:45.674Z,11.46
2023-02-24T00:29:45.677Z,11.34
2023-02-24T00:30:45.664Z,11.31
2023-02-24T00:31:45.829Z,11.38
2023-02-24T00:32:45.748Z,11.57
2023-02-24T00:33:45.693Z,11.70
2023-02-24T00:34:45.618Z,11.71
2023-02-24T00:35:45.662Z,11.57
2023-02-24T00:36:45.603Z,11.61
2023-02-24T00:37:45.565Z,11.34
2023-02-24T00:38:45.554Z,11.46
2023-02-24T00:39:45.600Z,11.56
2023-02-24T00:40:45.531Z,11.61
2023-02-24T00:41:45.561Z,11.57
2023-02-24T00:42:45.506Z,11.61
2023-02-24T00:43:45.534Z,11.74
2023-02-24T00:44:45.514Z,11.59
2023-02-24T00:45:45.491Z,11.43
2023-02-24T00:46:45.481Z,11.49
2023-02-24T00:47:45.486Z,11.54
2023-02-24T00:48:45.449Z,11.59
2023-02-24T00:49:45.441Z,11.57
2023-02-24T00:50:45.419Z,11.65
2023-02-24T00:51:45.420Z,11.24
2023-02-24T00:52:45.435Z,11.13
2023-02-24T00:53:45.388Z,11.03
2023-02-24T00:54:45.371Z,11.02
2023-02-24T00:55:45.365Z,11.02
2023-02-24T00:56:45.422Z,10.98
2023-02-24T00:57:45.373Z,10.88
2023-02-24T00:58:45.390Z,10.88
2023-02-24T00:59:45.325Z,10.83
2023-02-24T01:00:45.321Z,10.56
2023-02-24T01:01:45.424Z,10.63
2023-02-24T01:02:45.292Z,10.70
2023-02-24T01:03:45.339Z,10.68
2023-02-24T01:04:45.311Z,10.58
2023-02-24T01:05:45.264Z,10.53
2023-02-24T01:06:45.331Z,10.70
2023-02-24T01:07:45.232Z,10.78
2023-02-24T01:08:45.281Z,10.84
2023-02-24T01:09:45.236Z,10.77
2023-02-24T01:10:45.219Z,10.78
2023-02-24T01:11:45.276Z,10.59
2023-02-24T01:12:45.195Z,10.65
2023-02-24T01:13:45.161Z,10.78
2023-02-24T01:14:45.162Z,10.88
2023-02-24T01:15:45.182Z,11.03
2023-02-24T01:16:45.176Z,10.88
2023-02-24T01:17:45.128Z,10.77
2023-02-24T01:18:45.106Z,10.74
2023-02-24T01:19:45.085Z,10.80
2023-02-24T01:20:45.082Z,10.89
2023-02-24T01:21:45.096Z,11.11
2023-02-24T01:22:45.793Z,11.21
2023-02-24T01:23:45.033Z,11.31
2023-02-24T01:24:45.046Z,11.38
2023-02-24T01:25:45.016Z,11.34
2023-02-24T01:26:45.024Z,11.34
2023-02-24T01:27:45.040Z,11.28
2023-02-24T01:28:44.993Z,11.06
2023-02-24T01:29:44.986Z,11.02
2023-02-24T01:30:44.994Z,11.06
2023-02-24T01:31:46.777Z,11.24
2023-02-24T01:32:45.078Z,11.28
2023-02-24T01:33:44.978Z,11.21
2023-02-24T01:34:44.947Z,11.28
2023-02-24T01:35:44.905Z,11.21
2023-02-24T01:36:44.926Z,11.03
2023-02-24T01:37:44.893Z,11.03
2023-02-24T01:38:44.870Z,10.80
2023-02-24T01:39:44.917Z,10.99
2023-02-24T01:40:44.847Z,11.11
2023-02-24T01:41:44.842Z,11.03
2023-02-24T01:42:44.836Z,11.03
2023-02-24T01:43:44.817Z,11.06
2023-02-24T01:44:44.799Z,10.99
2023-02-24T01:45:44.842Z,11.10
2023-02-24T01:46:44.864Z,11.06
2023-02-24T01:47:44.777Z,10.99
2023-02-24T01:48:44.761Z,11.16
2023-02-24T01:49:44.768Z,11.27
2023-02-24T01:50:44.752Z,11.38
2023-02-24T01:51:44.741Z,11.34
2023-02-24T01:52:44.722Z,11.16
2023-02-24T01:53:44.715Z,10.96
2023-02-24T01:54:44.752Z,10.95
2023-02-24T01:55:44.683Z,10.95
2023-02-24T01:56:44.662Z,10.98
2023-02-24T01:57:44.696Z,10.91
2023-02-24T01:58:44.654Z,10.96
2023-02-24T01:59:44.633Z,11.06
2023-02-24T02:00:44.614Z,11.09
2023-02-24T02:01:44.781Z,11.13
2023-02-24T02:02:44.769Z,11.13
2023-02-24T02:03:44.613Z,11.10
2023-02-24T02:04:44.575Z,11.01
2023-02-24T02:05:44.565Z,10.98
2023-02-24T02:06:44.634Z,10.86
2023-02-24T02:07:44.544Z,10.81
2023-02-24T02:08:44.535Z,10.81
2023-02-24T02:09:44.536Z,10.83
2023-02-24T02:10:44.507Z,10.68
2023-02-24T02:11:44.496Z,10.65
2023-02-24T02:12:44.912Z,10.70
2023-02-24T02:13:44.590Z,10.47
2023-02-24T02:14:44.477Z,10.36
2023-02-24T02:15:44.456Z,10.43
2023-02-24T02:16:44.457Z,10.53
2023-02-24T02:17:44.427Z,10.44
2023-02-24T02:18:44.462Z,10.44
2023-02-24T02:19:44.502Z,10.14
2023-02-24T02:20:44.407Z,10.09
2023-02-24T02:21:44.402Z,10.19
2023-02-24T02:22:44.380Z,10.32
2023-02-24T02:23:44.364Z,10.56
2023-02-24T02:24:44.358Z,10.28
2023-02-24T02:25:44.347Z,10.43
2023-02-24T02:26:44.343Z,10.46
2023-02-24T02:27:44.323Z,10.51
2023-02-24T02:28:44.309Z,10.44
2023-02-24T02:29:44.301Z,10.15
2023-02-24T02:30:44.302Z,10.24
2023-02-24T02:31:44.517Z,10.21
2023-02-24T02:32:44.369Z,10.17
2023-02-24T02:33:44.259Z,10.06
2023-02-24T02:34:44.229Z,9.91
2023-02-24T02:35:44.232Z,10.15
2023-02-24T02:36:44.231Z,10.09
2023-02-24T02:37:44.203Z,10.21
2023-02-24T02:38:44.198Z,10.28
2023-02-24T02:39:44.184Z,10.14
2023-02-24T02:40:44.193Z,10.36
2023-02-24T02:41:44.165Z,10.39
2023-02-24T02:42:44.151Z,10.34
2023-02-24T02:43:44.151Z,10.12
2023-02-24T02:44:44.199Z,10.40
2023-02-24T02:45:44.123Z,10.53
2023-02-24T02:46:44.144Z,10.47
2023-02-24T02:47:44.094Z,10.36
2023-02-24T02:48:44.106Z,10.44
2023-02-24T02:49:44.118Z,10.58
2023-02-24T02:50:44.097Z,10.62
2023-02-24T02:51:44.072Z,10.60
2023-02-24T02:52:44.036Z,10.60
2023-02-24T02:53:44.010Z,10.76
2023-02-24T02:54:44.006Z,10.77
2023-02-24T02:55:44.016Z,10.80
2023-02-24T02:56:43.976Z,10.80
2023-02-24T02:57:43.980Z,10.89
2023-02-24T02:58:43.957Z,10.95
2023-02-24T02:59:43.941Z,10.99
2023-02-24T03:00:43.939Z,11.01
2023-02-24T03:01:43.940Z,11.02
2023-02-24T03:02:43.915Z,11.02
2023-02-24T03:03:43.902Z,11.01
2023-02-24T03:04:43.922Z,10.96
2023-02-24T03:05:43.896Z,10.89
2023-02-24T03:06:43.873Z,10.86
2023-02-24T03:07:43.891Z,10.91
2023-02-24T03:08:43.926Z,10.83
2023-02-24T03:09:43.914Z,10.77
2023-02-24T03:10:43.856Z,10.80
2023-02-24T03:11:43.816Z,10.73
2023-02-24T03:12:43.867Z,10.71
2023-02-24T03:13:43.794Z,10.65
2023-02-24T03:14:43.825Z,10.60
2023-02-24T03:15:43.757Z,10.70
2023-02-24T03:16:43.847Z,10.71
2023-02-24T03:17:43.767Z,10.46
2023-02-24T03:18:43.820Z,9.96
2023-02-24T03:19:43.725Z,9.81
2023-02-24T03:20:43.720Z,9.73
2023-02-24T03:21:43.920Z,9.86
2023-02-24T03:22:43.678Z,9.97
2023-02-24T03:23:43.701Z,9.83
2023-02-24T03:24:43.775Z,9.83
2023-02-24T03:25:43.651Z,9.82
2023-02-24T03:26:43.668Z,9.79
2023-02-24T03:27:43.621Z,9.83
2023-02-24T03:28:43.625Z,10.00
2023-02-24T03:29:43.685Z,9.76
2023-02-24T03:30:43.645Z,9.93
2023-02-24T03:31:43.742Z,9.79
2023-02-24T03:32:43.811Z,9.91
2023-02-24T03:33:43.589Z,9.88
2023-02-24T03:34:43.586Z,10.00
2023-02-24T03:35:43.555Z,10.07
2023-02-24T03:36:43.572Z,10.06
2023-02-24T03:37:43.515Z,10.12
2023-02-24T03:38:43.524Z,9.96
2023-02-24T03:39:43.572Z,9.71
2023-02-24T03:40:43.559Z,9.94
2023-02-24T03:41:43.490Z,10.10
2023-02-24T03:42:43.452Z,10.10
2023-02-24T03:43:43.512Z,10.18
2023-02-24T03:44:43.433Z,10.25
2023-02-24T03:45:43.444Z,10.28
2023-02-24T03:46:43.480Z,10.28
2023-02-24T03:47:43.408Z,10.24
2023-02-24T03:48:43.402Z,10.17
2023-02-24T03:49:43.375Z,9.91
2023-02-24T03:50:43.365Z,9.93
2023-02-24T03:51:43.364Z,10.07
2023-02-24T03:52:43.406Z,9.88
2023-02-24T03:53:43.347Z,9.88
2023-02-24T03:54:43.349Z,9.83
2023-02-24T03:55:43.304Z,9.61
2023-02-24T03:56:43.298Z,9.67
2023-02-24T03:57:43.304Z,9.78
2023-02-24T03:58:43.288Z,10.04
2023-02-24T03:59:43.256Z,10.03
2023-02-24T04:00:43.244Z,9.76
2023-02-24T04:01:43.235Z,9.70
2023-02-24T04:02:43.249Z,9.50
2023-02-24T04:03:43.207Z,9.46
2023-02-24T04:04:43.245Z,9.49
2023-02-24T04:05:43.185Z,9.60
2023-02-24T04:06:43.176Z,9.85
2023-02-24T04:07:43.155Z,10.03
2023-02-24T04:08:43.165Z,10.01
2023-02-24T04:09:43.162Z,9.99
2023-02-24T04:10:43.126Z,9.88
2023-02-24T04:11:43.106Z,9.68
2023-02-24T04:12:43.202Z,9.70
2023-02-24T04:13:43.098Z,9.49
2023-02-24T04:14:43.085Z,9.58
2023-02-24T04:15:43.132Z,9.61
2023-02-24T04:16:43.080Z,9.81
2023-02-24T04:17:43.052Z,9.71
2023-02-24T04:18:43.028Z,9.88
2023-02-24T04:19:43.016Z,9.96
2023-02-24T04:20:43.018Z,9.63
2023-02-24T04:21:43.040Z,9.52
2023-02-24T04:22:42.991Z,9.61
2023-02-24T04:23:42.980Z,9.70
2023-02-24T04:24:42.993Z,9.68
2023-02-24T04:25:43.026Z,9.75
2023-02-24T04:26:42.950Z,9.64
2023-02-24T04:27:42.959Z,9.57
2023-02-24T04:28:42.932Z,9.75
2023-02-24T04:29:42.900Z,9.81
2023-02-24T04:30:42.990Z,9.78
2023-02-24T04:31:43.128Z,9.66
2023-02-24T04:32:43.021Z,9.52
2023-02-24T04:33:42.870Z,9.50
2023-02-24T04:34:42.875Z,9.63
2023-02-24T04:35:42.842Z,9.91
2023-02-24T04:36:42.832Z,10.09
2023-02-24T04:37:42.866Z,9.93
2023-02-24T04:38:42.841Z,9.53
2023-02-24T04:39:42.815Z,9.60
2023-02-24T04:40:42.945Z,9.63
2023-02-24T04:41:42.770Z,9.67
2023-02-24T04:42:42.772Z,9.83
2023-02-24T04:43:42.752Z,9.85
2023-02-24T04:44:42.801Z,9.57
2023-02-24T04:45:42.720Z,9.48
2023-02-24T04:46:42.883Z,9.53
2023-02-24T04:47:42.741Z,9.71
2023-02-24T04:48:42.705Z,9.70
2023-02-24T04:49:42.742Z,9.63
2023-02-24T04:50:42.671Z,9.79
2023-02-24T04:51:42.694Z,9.56
2023-02-24T04:52:42.683Z,9.58
2023-02-24T04:53:42.643Z,9.61
2023-02-24T04:54:42.639Z,9.67
2023-02-24T04:55:42.646Z,9.66
2023-02-24T04:56:42.612Z,9.53
2023-02-24T04:57:42.594Z,9.23
2023-02-24T04:58:42.628Z,9.16
2023-02-24T04:59:42.587Z,9.43
2023-02-24T05:00:42.607Z,9.40
2023-02-24T05:01:42.598Z,9.46
2023-02-24T05:02:42.564Z,9.56
2023-02-24T05:03:42.764Z,9.34
2023-02-24T05:04:42.571Z,9.27
2023-02-24T05:05:42.512Z,9.04
2023-02-24T05:06:42.503Z,9.24
2023-02-24T05:07:42.525Z,9.21
2023-02-24T05:08:42.479Z,9.12
2023-02-24T05:09:42.480Z,8.93
2023-02-24T05:10:42.459Z,9.09
2023-02-24T05:11:42.452Z,9.25
2023-02-24T05:12:42.418Z,9.31
2023-02-24T05:13:42.437Z,9.52
2023-02-24T05:14:42.399Z,9.39
2023-02-24T05:15:42.435Z,9.28
2023-02-24T05:16:42.397Z,9.32
2023-02-24T05:17:42.368Z,9.18
2023-02-24T05:18:42.369Z,9.21
2023-02-24T05:19:42.392Z,9.28
2023-02-24T05:20:42.334Z,9.09
2023-02-24T05:21:42.370Z,9.06
2023-02-24T05:22:42.309Z,9.21
2023-02-24T05:23:42.319Z,8.94
2023-02-24T05:24:42.299Z,8.81
2023-02-24T05:25:42.299Z,8.97
2023-02-24T05:26:42.261Z,9.18
2023-02-24T05:27:42.282Z,9.39
2023-02-24T05:28:42.249Z,9.25
2023-02-24T05:29:42.269Z,9.16
2023-02-24T05:30:42.302Z,9.21
2023-02-24T05:31:42.259Z,9.27
2023-02-24T05:32:42.248Z,9.13
2023-02-24T05:33:42.194Z,9.02
2023-02-24T05:34:42.183Z,8.81
2023-02-24T05:35:42.161Z,9.02
2023-02-24T05:36:42.171Z,9.21
2023-02-24T05:37:42.156Z,9.30
2023-02-24T05:38:42.119Z,9.20
2023-02-24T05:39:42.130Z,9.02
2023-02-24T05:40:42.120Z,9.21
2023-02-24T05:41:42.393Z,9.16
2023-02-24T05:42:42.101Z,9.13
2023-02-24T05:43:42.100Z,9.12
2023-02-24T05:44:42.089Z,9.04
2023-02-24T05:45:42.040Z,9.18
2023-02-24T05:46:42.116Z,9.15
2023-02-24T05:47:42.024Z,9.12
2023-02-24T05:48:42.022Z,9.10
2023-02-24T05:49:42.016Z,9.12
2023-02-24T05:50:42.003Z,8.97
2023-02-24T05:51:41.978Z,9.23
2023-02-24T05:52:41.975Z,9.18
2023-02-24T05:53:41.960Z,9.28
2023-02-24T05:54:41.992Z,9.21
2023-02-24T05:55:41.929Z,9.39
2023-02-24T05:56:41.911Z,9.40
2023-02-24T05:57:42.051Z,9.30
2023-02-24T05:58:41.896Z,9.18
2023-02-24T05:59:41.928Z,9.34
2023-02-24T06:00:41.870Z,9.40
2023-02-24T06:01:41.949Z,9.23
2023-02-24T06:02:41.895Z,9.49
2023-02-24T06:03:41.830Z,9.48
2023-02-24T06:04:41.820Z,9.45
2023-02-24T06:05:42.040Z,9.04
2023-02-24T06:06:41.820Z,8.94
2023-02-24T06:07:41.812Z,8.88
2023-02-24T06:08:41.781Z,9.02
2023-02-24T06:09:41.789Z,9.16
2023-02-24T06:10:41.788Z,9.10
2023-02-24T06:11:41.820Z,9.21
2023-02-24T06:12:41.738Z,9.28
2023-02-24T06:13:41.738Z,9.05
2023-02-24T06:14:41.713Z,9.04
2023-02-24T06:15:41.757Z,8.90
2023-02-24T06:16:41.719Z,8.87
2023-02-24T06:17:41.684Z,8.96
2023-02-24T06:18:41.662Z,9.10
2023-02-24T06:19:41.675Z,9.01
2023-02-24T06:20:41.643Z,9.18
2023-02-24T06:21:41.656Z,9.05
2023-02-24T06:22:41.653Z,9.12
2023-02-24T06:23:41.609Z,9.20
2023-02-24T06:24:41.634Z,9.04
2023-02-24T06:25:41.585Z,8.99
2023-02-24T06:26:41.586Z,9.27
2023-02-24T06:27:41.565Z,9.09
2023-02-24T06:28:41.574Z,8.87
2023-02-24T06:29:41.549Z,8.91
2023-02-24T06:30:41.542Z,8.81
2023-02-24T06:31:41.668Z,8.69
2023-02-24T06:32:41.821Z,9.06
2023-02-24T06:33:41.564Z,9.18
2023-02-24T06:34:41.486Z,9.13
2023-02-24T06:35:41.469Z,8.93
2023-02-24T06:36:41.459Z,8.90
2023-02-24T06:37:41.453Z,9.10
2023-02-24T06:38:41.453Z,8.90
2023-02-24T06:39:41.461Z,8.87
2023-02-24T06:40:41.424Z,8.84
2023-02-24T06:41:41.406Z,8.78
2023-02-24T06:42:41.662Z,8.86
2023-02-24T06:43:41.385Z,8.90
2023-02-24T06:44:41.437Z,8.88
2023-02-24T06:45:41.549Z,9.18
2023-02-24T06:46:41.379Z,9.04
2023-02-24T06:47:41.340Z,9.04
2023-02-24T06:48:41.345Z,9.18
2023-02-24T06:49:41.310Z,9.18
2023-02-24T06:50:42.200Z,9.25
2023-02-24T06:51:41.423Z,9.32
2023-02-24T06:52:41.284Z,9.45
2023-02-24T06:53:41.272Z,9.27
2023-02-24T06:54:41.263Z,9.13
2023-02-24T06:55:41.254Z,9.30
2023-02-24T06:56:41.257Z,9.49
2023-02-24T06:57:41.230Z,9.46
2023-02-24T06:58:41.295Z,9.35
2023-02-24T06:59:41.231Z,9.13
2023-02-24T07:00:41.242Z,9.05
2023-02-24T07:01:41.283Z,9.13
2023-02-24T07:02:41.187Z,9.23
2023-02-24T07:03:41.143Z,9.32
2023-02-24T07:04:41.241Z,9.56
2023-02-24T07:05:41.138Z,9.43
2023-02-24T07:06:41.121Z,9.06
2023-02-24T07:07:41.145Z,9.06
2023-02-24T07:08:41.105Z,9.16
2023-02-24T07:09:41.090Z,9.30
2023-02-24T07:10:41.075Z,9.21
2023-02-24T07:11:41.053Z,9.48
2023-02-24T07:12:41.095Z,9.52
2023-02-24T07:13:41.066Z,9.57
2023-02-24T07:14:41.047Z,9.68
2023-02-24T07:15:41.436Z,9.97
2023-02-24T07:16:41.070Z,9.70
2023-02-24T07:17:40.998Z,9.71
2023-02-24T07:18:41.022Z,9.86
2023-02-24T07:19:41.006Z,9.99
2023-02-24T07:20:41.030Z,10.25
2023-02-24T07:21:40.946Z,10.44
2023-02-24T07:22:40.966Z,10.21
2023-02-24T07:23:41.030Z,9.85
2023-02-24T07:24:40.903Z,9.91
2023-02-24T07:25:40.930Z,10.00
2023-02-24T07:26:40.887Z,10.07
2023-02-24T07:27:40.900Z,10.00
2023-02-24T07:28:40.879Z,10.01
2023-02-24T07:29:40.848Z,10.09
2023-02-24T07:30:41.025Z,9.97
2023-02-24T07:31:40.920Z,9.73
2023-02-24T07:32:40.846Z,10.01
2023-02-24T07:33:40.809Z,10.07
2023-02-24T07:34:41.009Z,10.25
2023-02-24T07:35:41.583Z,10.21
2023-02-24T07:36:40.861Z,10.00
2023-02-24T07:37:40.778Z,10.21
2023-02-24T07:38:40.768Z,10.34
2023-02-24T07:39:40.754Z,10.42
2023-02-24T07:40:40.768Z,10.36
2023-02-24T07:41:40.705Z,9.93
2023-02-24T07:42:40.724Z,9.86
2023-02-24T07:43:40.685Z,9.91
2023-02-24T07:44:40.743Z,9.93
2023-02-24T07:45:40.744Z,10.09
2023-02-24T07:46:40.680Z,10.22
2023-02-24T07:47:40.678Z,10.14
2023-02-24T07:48:40.831Z,10.10
2023-02-24T07:49:40.619Z,10.26
2023-02-24T07:50:40.618Z,10.19
2023-02-24T07:51:40.597Z,10.01
2023-02-24T07:52:40.707Z,9.91
2023-02-24T07:53:40.588Z,9.82
2023-02-24T07:54:40.593Z,9.83
2023-02-24T07:55:40.618Z,10.06
2023-02-24T07:56:40.526Z,10.04
2023-02-24T07:57:40.533Z,10.15
2023-02-24T07:58:40.525Z,10.06
2023-02-24T07:59:40.515Z,10.24
2023-02-24T08:00:40.496Z,10.19
2023-02-24T08:01:40.485Z,10.26
2023-02-24T08:02:40.671Z,10.32
2023-02-24T08:03:40.466Z,10.56
2023-02-24T08:04:40.486Z,10.42
2023-02-24T08:05:40.468Z,10.39
2023-02-24T08:06:40.434Z,10.24
2023-02-24T08:07:40.416Z,10.06
2023-02-24T08:08:40.385Z,10.25
2023-02-24T08:09:40.429Z,10.22
2023-02-24T08:10:40.411Z,10.22
2023-02-24T08:11:40.360Z,10.25
2023-02-24T08:12:40.348Z,10.32
2023-02-24T08:13:40.338Z,10.40
2023-02-24T08:14:40.318Z,10.40
2023-02-24T08:15:40.430Z,10.55
2023-02-24T08:16:40.357Z,10.03
2023-02-24T08:17:40.296Z,10.19
2023-02-24T08:18:40.278Z,10.30
2023-02-24T08:19:40.275Z,10.52
2023-02-24T08:20:40.274Z,10.55
2023-02-24T08:21:40.326Z,10.63
2023-02-24T08:22:40.336Z,10.70
2023-02-24T08:23:40.220Z,10.94
2023-02-24T08:24:40.214Z,10.91
2023-02-24T08:25:40.568Z,10.86
2023-02-24T08:26:40.197Z,10.65
2023-02-24T08:27:40.294Z,10.70
2023-02-24T08:28:40.170Z,10.62
2023-02-24T08:29:40.212Z,10.32
2023-02-24T08:30:40.687Z,10.58
2023-02-24T08:31:40.273Z,10.58
2023-02-24T08:32:40.212Z,10.59
2023-02-24T08:33:40.147Z,10.42
2023-02-24T08:34:40.144Z,10.25
2023-02-24T08:35:40.184Z,10.03
2023-02-24T08:36:40.060Z,10.07
2023-02-24T08:37:40.054Z,10.07
2023-02-24T08:38:40.325Z,10.17
2023-02-24T08:39:40.052Z,10.39
2023-02-24T08:40:40.075Z,10.42
2023-02-24T08:41:40.117Z,10.47
2023-02-24T08:42:39.993Z,10.46
2023-02-24T08:43:40.035Z,10.15
2023-02-24T08:44:42.210Z,10.19
2023-02-24T08:45:39.992Z,10.37
2023-02-24T08:46:40.021Z,10.55
2023-02-24T08:47:39.948Z,10.83
2023-02-24T08:48:39.926Z,10.96
2023-02-24T08:49:39.919Z,10.98
2023-02-24T08:50:39.953Z,11.16
2023-02-24T08:51:39.957Z,11.35
2023-02-24T08:52:39.898Z,10.99
2023-02-24T08:53:39.888Z,10.60
2023-02-24T08:54:39.886Z,10.33
2023-02-24T08:55:39.855Z,10.24
2023-02-24T08:56:39.870Z,10.32
2023-02-24T08:57:39.865Z,10.37
2023-02-24T08:58:39.830Z,10.59
2023-02-24T08:59:39.899Z,10.76
2023-02-24T09:00:39.922Z,10.62
2023-02-24T09:01:39.847Z,10.36
2023-02-24T09:02:39.763Z,10.12
2023-02-24T09:03:39.767Z,10.32
2023-02-24T09:04:39.799Z,10.21
2023-02-24T09:05:39.787Z,10.25
2023-02-24T09:06:39.717Z,10.59
2023-02-24T09:07:39.716Z,10.24
2023-02-24T09:08:39.742Z,10.26
2023-02-24T09:09:39.693Z,10.22
2023-02-24T09:10:39.959Z,10.40
2023-02-24T09:11:39.673Z,10.18
2023-02-24T09:12:39.691Z,9.99
2023-02-24T09:13:39.647Z,10.17
2023-02-24T09:14:39.688Z,9.94
2023-02-24T09:15:39.639Z,10.24
2023-02-24T09:16:39.643Z,10.58
2023-02-24T09:17:39.662Z,10.80
2023-02-24T09:18:39.607Z,10.96
2023-02-24T09:19:39.696Z,10.83
2023-02-24T09:20:39.602Z,10.59
2023-02-24T09:21:39.564Z,10.74
2023-02-24T09:22:39.545Z,10.63
2023-02-24T09:23:39.542Z,10.22
2023-02-24T09:24:39.600Z,10.10
2023-02-24T09:25:39.550Z,10.30
2023-02-24T09:26:39.536Z,10.52
2023-02-24T09:27:39.477Z,10.70
2023-02-24T09:28:39.529Z,10.63
2023-02-24T09:29:39.485Z,10.60
2023-02-24T09:30:39.684Z,10.77
2023-02-24T09:31:39.523Z,10.36
2023-02-24T09:32:39.539Z,10.21
2023-02-24T09:33:39.778Z,10.17
2023-02-24T09:34:39.407Z,10.42
2023-02-24T09:35:39.447Z,10.42
2023-02-24T09:36:41.198Z,10.14
2023-02-24T09:37:39.367Z,10.12
2023-02-24T09:38:39.366Z,10.07
2023-02-24T09:39:39.346Z,10.25
2023-02-24T09:40:39.463Z,10.25
2023-02-24T09:41:39.332Z,10.34
2023-02-24T09:42:39.341Z,10.51
2023-02-24T09:43:39.358Z,10.18
2023-02-24T09:44:39.303Z,10.19
2023-02-24T09:45:39.412Z,10.37
2023-02-24T09:46:39.362Z,10.63
2023-02-24T09:47:39.258Z,10.77
2023-02-24T09:48:39.255Z,10.59
2023-02-24T09:49:39.261Z,10.32
2023-02-24T09:51:01.532Z,10.30
2023-02-24T09:51:40.216Z,10.04
2023-02-24T09:52:39.189Z,9.94
2023-02-24T09:53:41.443Z,10.17
2023-02-24T09:54:39.250Z,10.47
2023-02-24T09:55:39.152Z,10.71
2023-02-24T09:56:39.161Z,10.62
2023-02-24T09:57:39.161Z,10.56
2023-02-24T09:58:44.005Z,10.42
2023-02-24T09:59:40.141Z,10.53
2023-02-24T10:00:39.215Z,10.76
2023-02-24T10:01:39.129Z,10.74
2023-02-24T10:02:39.144Z,10.66
2023-02-24T10:03:39.062Z,10.73
2023-02-24T10:04:39.062Z,10.83
2023-02-24T10:05:39.110Z,10.94
2023-02-24T10:06:39.050Z,10.96
2023-02-24T10:07:39.012Z,10.83
2023-02-24T10:08:39.004Z,10.92
2023-02-24T10:09:39.016Z,11.25
2023-02-24T10:10:39.002Z,11.52
2023-02-24T10:11:38.972Z,11.21
2023-02-24T10:12:38.955Z,10.89
2023-02-24T10:13:38.965Z,11.10
2023-02-24T10:14:43.852Z,11.14
2023-02-24T10:15:39.997Z,11.28
2023-02-24T10:16:38.991Z,11.35
2023-02-24T10:17:38.914Z,10.65
2023-02-24T10:18:38.899Z,10.74
2023-02-24T10:19:38.876Z,11.14
2023-02-24T10:20:38.963Z,10.86
2023-02-24T10:21:38.880Z,10.91
2023-02-24T10:22:38.841Z,10.81
2023-02-24T10:23:38.865Z,10.99
2023-02-24T10:24:38.833Z,10.81
2023-02-24T10:25:38.906Z,10.89
2023-02-24T10:26:40.270Z,11.14
2023-02-24T10:27:38.808Z,10.89
2023-02-24T10:28:38.788Z,10.73
2023-02-24T10:29:38.785Z,10.40
2023-02-24T10:30:38.979Z,10.32
2023-02-24T10:31:38.940Z,10.46
2023-02-24T10:32:38.784Z,10.43
2023-02-24T10:33:38.725Z,10.56
2023-02-24T10:34:38.698Z,10.40
2023-02-24T10:35:38.715Z,10.60
2023-02-24T10:36:38.703Z,10.84
2023-02-24T10:37:38.668Z,11.34
2023-02-24T10:38:38.688Z,11.16
2023-02-24T10:39:38.674Z,11.17
2023-02-24T10:40:38.639Z,10.88
2023-02-24T10:41:38.663Z,11.07
2023-02-24T10:42:38.615Z,10.98
2023-02-24T10:43:38.723Z,10.80
2023-02-24T10:44:38.632Z,10.44
2023-02-24T10:45:38.594Z,10.46
2023-02-24T10:46:42.122Z,10.32
2023-02-24T10:47:38.570Z,10.24
2023-02-24T10:48:41.762Z,10.34
2023-02-24T10:49:38.530Z,10.22
2023-02-24T10:50:41.416Z,10.56
2023-02-24T10:51:39.510Z,10.88
2023-02-24T10:52:38.521Z,10.81
2023-02-24T10:53:39.259Z,10.18
2023-02-24T10:54:38.506Z,10.25
2023-02-24T10:55:38.461Z,10.83
2023-02-24T10:56:38.467Z,10.94
2023-02-24T10:57:47.494Z,11.03
2023-02-24T10:58:39.508Z,11.07
2023-02-24T10:59:38.501Z,11.17
2023-02-24T11:00:38.413Z,11.28
2023-02-24T11:01:38.474Z,10.78
2023-02-24T11:02:38.466Z,10.83
2023-02-24T11:03:38.360Z,10.86
2023-02-24T11:04:38.384Z,10.94
2023-02-24T11:05:38.738Z,11.14
2023-02-24T11:06:38.349Z,10.92
2023-02-24T11:07:38.341Z,10.63
2023-02-24T11:08:38.318Z,10.59
2023-02-24T11:09:38.296Z,10.32
2023-02-24T11:10:38.308Z,10.34
2023-02-24T11:11:38.286Z,10.58
2023-02-24T11:12:38.322Z,10.83
2023-02-24T11:13:38.280Z,10.55
2023-02-24T11:14:38.260Z,10.25
2023-02-24T11:15:38.268Z,10.14
2023-02-24T11:16:38.276Z,10.36
2023-02-24T11:17:38.277Z,10.53
2023-02-24T11:18:38.250Z,10.18
2023-02-24T11:19:38.188Z,10.28
2023-02-24T11:20:48.642Z,10.17
2023-02-24T11:21:39.174Z,10.25
2023-02-24T11:22:38.143Z,10.46
2023-02-24T11:23:38.169Z,10.51
2023-02-24T11:24:38.152Z,10.73
2023-02-24T11:25:38.112Z,10.76
2023-02-24T11:26:38.116Z,10.34
2023-02-24T11:27:38.092Z,9.89
2023-02-24T11:28:38.088Z,10.10
2023-02-24T11:29:38.092Z,10.34
2023-02-24T11:30:38.195Z,10.36
2023-02-24T11:31:38.228Z,10.12
2023-02-24T11:32:38.233Z,10.24
2023-02-24T11:33:38.027Z,10.34
2023-02-24T11:34:38.032Z,10.56
2023-02-24T11:35:38.040Z,10.91
2023-02-24T11:36:38.025Z,11.11
2023-02-24T11:37:38.016Z,11.02
2023-02-24T11:38:37.978Z,10.88
2023-02-24T11:39:37.983Z,10.58
2023-02-24T11:40:37.954Z,10.66
2023-02-24T11:41:37.964Z,10.58
2023-02-24T11:42:37.944Z,10.34
2023-02-24T11:43:37.930Z,10.36
2023-02-24T11:44:37.886Z,10.19
2023-02-24T11:45:37.886Z,10.37
2023-02-24T11:46:37.962Z,9.99
2023-02-24T11:47:37.869Z,10.18
2023-02-24T11:48:37.881Z,10.09
2023-02-24T11:49:37.841Z,9.97
2023-02-24T11:50:37.841Z,10.04
2023-02-24T11:51:37.850Z,9.89
2023-02-24T11:52:37.803Z,10.04
2023-02-24T11:53:37.814Z,10.15
2023-02-24T11:54:37.790Z,10.06
2023-02-24T11:55:37.931Z,10.43
2023-02-24T11:56:37.782Z,10.22
2023-02-24T11:57:37.762Z,10.01
2023-02-24T11:58:37.765Z,9.97
2023-02-24T11:59:37.739Z,10.30
2023-02-24T12:00:37.754Z,10.34
2023-02-24T12:01:37.721Z,9.97
2023-02-24T12:02:37.718Z,9.76
2023-02-24T12:03:37.697Z,10.06
2023-02-24T12:04:37.662Z,10.09
2023-02-24T12:05:37.830Z,9.85
2023-02-24T12:06:37.658Z,10.15
2023-02-24T12:07:37.631Z,9.89
2023-02-24T12:08:37.645Z,9.99
2023-02-24T12:09:37.601Z,10.01
2023-02-24T12:10:37.653Z,10.03
2023-02-24T12:11:37.585Z,9.93
2023-02-24T12:12:37.583Z,9.81
2023-02-24T12:13:37.556Z,9.86
2023-02-24T12:14:37.541Z,9.99
2023-02-24T12:15:37.574Z,10.24
2023-02-24T12:16:37.597Z,10.09
2023-02-24T12:17:37.525Z,10.03
2023-02-24T12:18:37.539Z,10.06
2023-02-24T12:19:37.502Z,9.94
2023-02-24T12:20:37.509Z,9.96
2023-02-24T12:21:37.496Z,10.03
2023-02-24T12:22:37.453Z,9.99
2023-02-24T12:23:37.476Z,10.25
2023-02-24T12:24:37.428Z,10.01
2023-02-24T12:25:37.418Z,10.15
2023-02-24T12:26:37.403Z,9.85
2023-02-24T12:27:37.418Z,9.81
2023-02-24T12:28:37.386Z,9.83
2023-02-24T12:29:37.372Z,9.79
2023-02-24T12:30:39.087Z,9.67
2023-02-24T12:31:37.453Z,9.75
2023-02-24T12:32:37.760Z,9.76
2023-02-24T12:33:37.349Z,9.64
2023-02-24T12:34:37.336Z,9.70
2023-02-24T12:35:37.304Z,9.85
2023-02-24T12:36:37.293Z,9.91
2023-02-24T12:37:37.296Z,10.10
2023-02-24T12:38:37.285Z,10.25
2023-02-24T12:39:37.256Z,10.14
2023-02-24T12:40:37.244Z,10.28
2023-02-24T12:41:37.509Z,10.03
2023-02-24T12:42:37.213Z,10.04
2023-02-24T12:43:37.208Z,10.18
2023-02-24T12:44:37.214Z,10.40
2023-02-24T12:45:37.253Z,10.33
2023-02-24T12:46:37.183Z,10.40
2023-02-24T12:47:37.184Z,10.36
2023-02-24T12:48:37.184Z,9.91
2023-02-24T12:49:37.204Z,9.86
2023-02-24T12:50:37.153Z,9.91
2023-02-24T12:51:37.142Z,10.09
2023-02-24T12:52:37.103Z,10.22
2023-02-24T12:53:37.082Z,10.36
2023-02-24T12:54:37.094Z,10.28
2023-02-24T12:55:37.064Z,10.03
2023-02-24T12:56:37.088Z,10.00
2023-02-24T12:57:37.060Z,10.17
2023-02-24T12:58:37.098Z,10.44
2023-02-24T12:59:37.055Z,10.37
2023-02-24T13:00:37.019Z,10.33
2023-02-24T13:01:37.061Z,10.34